Time;durP1;ratioP1;P1;durP2;ratioP2;P2;SDS_P1;SDS_P2;PMS_P1;PMS_P2;Temp;Humidity;BMP_temperature;BMP_pressure;BME280_temperature;BME280_humidity;BME280_pressure;Samples;Min_cycle;Max_cycle;Signal;HPM_P1;HPM_P2
2023/07/06 00:00:59;;;;;;;11.53;7.77;;;16.40;99.90;15.90;100199;;;;591692;239;24057;-76
2023/07/06 00:03:24;;;;;;;10.87;8.00;;;16.40;99.90;15.90;100198;;;;591691;239;24055;-76
2023/07/06 00:05:54;;;;;;;9.40;7.10;;;16.40;99.90;15.90;100211;;;;591857;239;24128;-78
2023/07/06 00:08:24;;;;;;;9.47;7.43;;;16.40;99.90;15.90;100200;;;;589127;239;24030;-77
2023/07/06 00:10:53;;;;;;;9.67;7.73;;;16.40;99.90;15.90;100203;;;;591485;239;24047;-76
2023/07/06 00:13:25;;;;;;;12.57;7.37;;;16.40;99.90;15.90;100204;;;;592132;239;24023;-77
2023/07/06 00:15:55;;;;;;;8.73;7.23;;;16.30;99.90;15.90;100213;;;;591932;239;24062;-75
2023/07/06 00:18:22;;;;;;;8.43;6.87;;;16.30;99.90;15.90;100206;;;;591399;239;24023;-76
2023/07/06 00:20:50;;;;;;;8.90;7.90;;;16.30;99.90;15.80;100210;;;;591886;239;24054;-77
2023/07/06 00:23:21;;;;;;;8.03;7.23;;;16.30;99.90;15.80;100209;;;;591654;239;24028;-78
2023/07/06 00:25:47;;;;;;;13.93;7.87;;;16.30;99.90;15.80;100208;;;;588841;239;24076;-77
2023/07/06 00:28:18;;;;;;;14.17;7.80;;;16.30;99.90;15.80;100210;;;;591466;239;25052;-79
2023/07/06 00:33:16;;;;;;;9.43;7.80;;;16.30;99.90;15.80;100205;;;;591319;239;24032;-76
2023/07/06 00:35:41;;;;;;;9.33;7.73;;;16.30;99.90;15.80;100213;;;;591551;239;24022;-79
2023/07/06 00:38:10;;;;;;;10.03;8.33;;;16.40;99.90;15.80;100214;;;;591901;239;24026;-80
2023/07/06 00:40:43;;;;;;;11.87;8.00;;;16.30;99.90;15.80;100211;;;;591774;239;24034;-77
2023/07/06 00:43:15;;;;;;;10.90;7.00;;;16.30;99.90;15.70;100205;;;;592306;238;24017;-79
2023/07/06 00:45:39;;;;;;;12.50;7.73;;;16.30;99.90;15.70;100212;;;;592116;238;24033;-76
2023/07/06 00:48:08;;;;;;;10.23;7.13;;;16.20;99.90;15.60;100209;;;;592138;238;24059;-76
2023/07/06 00:50:35;;;;;;;11.27;8.20;;;16.10;99.90;15.60;100215;;;;591259;238;24057;-79
2023/07/06 00:53:06;;;;;;;8.13;7.07;;;16.10;99.90;15.50;100215;;;;592080;238;24057;-77
2023/07/06 00:55:33;;;;;;;10.47;6.67;;;16.00;99.90;15.50;100218;;;;578616;244;24161;-78
2023/07/06 00:58:01;;;;;;;8.97;6.67;;;16.00;99.90;15.40;100207;;;;568135;247;24108;-77
2023/07/06 01:00:29;;;;;;;16.23;7.43;;;16.00;99.90;15.40;100217;;;;578184;244;24069;-77
2023/07/06 01:02:57;;;;;;;12.70;7.17;;;15.90;99.90;15.40;100220;;;;591547;239;24029;-76
2023/07/06 01:05:25;;;;;;;7.00;6.30;;;15.90;99.90;15.30;100212;;;;591512;239;24092;-77
2023/07/06 01:07:54;;;;;;;8.90;6.70;;;15.80;99.90;15.30;100209;;;;591550;239;24078;-78
2023/07/06 01:10:21;;;;;;;8.73;6.87;;;15.80;99.90;15.20;100215;;;;591683;237;24096;-77
2023/07/06 01:12:49;;;;;;;7.23;6.40;;;15.80;99.90;15.20;100209;;;;591980;239;24033;-77
2023/07/06 01:15:18;;;;;;;9.77;6.27;;;15.70;99.90;15.10;100206;;;;591260;239;24119;-76
2023/07/06 01:17:55;;;;;;;9.93;6.63;;;15.70;99.90;15.10;100209;;;;591575;239;24046;-75
2023/07/06 01:20:30;;;;;;;10.43;6.53;;;15.60;99.90;15.00;100195;;;;590649;239;24074;-77
2023/07/06 01:23:05;;;;;;;10.37;6.33;;;15.60;99.90;15.00;100206;;;;591043;239;24045;-77
2023/07/06 01:25:46;;;;;;;11.13;6.37;;;15.40;99.90;14.90;100200;;;;586487;239;24046;-77
2023/07/06 01:28:45;;;;;;;6.97;5.83;;;15.40;99.90;14.90;100197;;;;591413;239;24053;-76
2023/07/06 01:31:18;;;;;;;6.70;6.10;;;15.40;99.90;14.80;100192;;;;591484;239;24078;-76
2023/07/06 01:33:50;;;;;;;7.20;5.93;;;15.30;99.90;14.80;100194;;;;600370;239;24111;-78
2023/07/06 01:36:23;;;;;;;9.40;6.37;;;15.30;99.90;14.70;100197;;;;590691;239;24068;-80
2023/07/06 01:38:51;;;;;;;7.43;6.27;;;15.20;99.90;14.70;100193;;;;590731;239;24069;-80
2023/07/06 01:41:26;;;;;;;10.23;6.20;;;15.20;99.90;14.60;100187;;;;588084;239;24074;-79
2023/07/06 01:43:53;;;;;;;7.37;6.23;;;15.10;99.90;14.60;100192;;;;591020;239;24073;-79
2023/07/06 01:46:21;;;;;;;6.90;5.67;;;15.10;99.90;14.50;100194;;;;591638;239;24085;-79
2023/07/06 01:48:49;;;;;;;12.07;5.97;;;15.00;99.90;14.50;100195;;;;591569;239;24016;-78
2023/07/06 01:51:18;;;;;;;10.17;6.53;;;15.00;99.90;14.50;100195;;;;591429;239;24034;-79
2023/07/06 01:53:54;;;;;;;6.77;5.93;;;15.00;99.90;14.40;100202;;;;590651;237;24032;-78
2023/07/06 01:56:24;;;;;;;6.77;6.07;;;14.90;99.90;14.40;100197;;;;592249;238;24054;-78
2023/07/06 01:59:01;;;;;;;10.30;5.67;;;14.90;99.90;14.30;100194;;;;591850;238;24076;-79
2023/07/06 02:01:29;;;;;;;13.97;6.03;;;14.90;99.90;14.30;100192;;;;592322;238;25087;-77
2023/07/06 02:04:00;;;;;;;8.50;5.67;;;14.80;99.90;14.20;100191;;;;591610;238;24033;-76
2023/07/06 02:06:28;;;;;;;8.00;5.47;;;14.80;99.90;14.20;100198;;;;591424;238;24041;-79
2023/07/06 02:08:56;;;;;;;7.47;5.73;;;14.70;99.90;14.10;100195;;;;591406;238;24064;-76
2023/07/06 02:11:22;;;;;;;8.73;7.68;;;14.70;99.90;14.10;100202;;;;585879;238;45840;-76
2023/07/06 02:13:49;;;;;;;9.13;7.17;;;14.60;99.90;14.00;100206;;;;591151;239;24042;-76
2023/07/06 02:16:21;;;;;;;9.30;6.70;;;14.60;99.90;14.00;100200;;;;591612;239;24047;-77
2023/07/06 02:18:45;;;;;;;6.23;5.63;;;14.50;99.90;14.00;100207;;;;591208;239;24034;-77
2023/07/06 02:21:13;;;;;;;8.13;5.40;;;14.50;99.90;14.00;100202;;;;591503;239;24030;-78
2023/07/06 02:23:44;;;;;;;8.27;6.50;;;14.50;99.90;13.90;100199;;;;591482;239;24032;-75
2023/07/06 02:26:12;;;;;;;7.57;5.83;;;14.50;99.90;13.90;100205;;;;591608;238;24046;-77
2023/07/06 02:28:36;;;;;;;8.33;6.47;;;14.40;99.90;13.80;100209;;;;568816;248;24077;-76
2023/07/06 02:31:05;;;;;;;9.00;5.67;;;14.40;99.90;13.80;100218;;;;578440;244;24098;-77
2023/07/06 02:33:34;;;;;;;5.80;5.23;;;14.30;99.90;13.70;100217;;;;591082;239;24048;-77
2023/07/06 02:36:00;;;;;;;6.47;5.50;;;14.30;99.90;13.70;100214;;;;590826;239;24072;-77
2023/07/06 02:38:34;;;;;;;7.50;5.87;;;14.20;99.90;13.60;100220;;;;591178;239;24032;-77
2023/07/06 02:41:04;;;;;;;10.53;6.13;;;14.20;99.90;13.60;100217;;;;590680;239;24075;-77
2023/07/06 02:43:27;;;;;;;8.10;5.83;;;14.20;99.90;13.60;100215;;;;590730;239;24036;-76
2023/07/06 02:45:56;;;;;;;12.00;6.00;;;14.10;99.90;13.50;100216;;;;591270;239;24025;-76
2023/07/06 02:48:25;;;;;;;8.87;5.90;;;14.10;99.90;13.50;100219;;;;591134;239;24096;-75
2023/07/06 02:50:56;;;;;;;9.00;5.70;;;14.00;99.90;13.40;100233;;;;591291;239;24031;-76
2023/07/06 02:53:21;;;;;;;11.70;5.90;;;14.00;99.90;13.40;100229;;;;591008;239;24024;-75
2023/07/06 02:55:52;;;;;;;7.93;6.10;;;14.00;99.90;13.40;100231;;;;591332;239;24004;-77
2023/07/06 02:58:21;;;;;;;11.13;6.93;;;14.00;99.90;13.40;100233;;;;590839;239;24052;-77
2023/07/06 03:00:49;;;;;;;6.37;5.73;;;14.00;99.90;13.40;100229;;;;591197;239;24074;-77
2023/07/06 03:03:18;;;;;;;10.80;5.30;;;13.90;99.90;13.30;100229;;;;591213;239;24094;-79
2023/07/06 03:05:48;;;;;;;7.90;5.43;;;13.90;99.90;13.30;100230;;;;591856;238;24036;-78
2023/07/06 03:08:18;;;;;;;5.73;5.07;;;13.90;99.90;13.30;100232;;;;592559;238;24118;-80
2023/07/06 03:10:46;;;;;;;6.20;5.30;;;13.80;99.90;13.30;100220;;;;592056;238;24054;-80
2023/07/06 03:13:14;;;;;;;6.47;4.73;;;13.90;99.90;13.30;100245;;;;591910;238;24080;-78
2023/07/06 03:15:45;;;;;;;6.70;5.53;;;13.90;99.90;13.30;100245;;;;592146;238;24026;-77
2023/07/06 03:18:11;;;;;;;5.30;4.83;;;13.80;99.90;13.30;100241;;;;591743;238;24027;-79
2023/07/06 03:20:40;;;;;;;6.30;4.77;;;13.90;99.90;13.40;100235;;;;592284;238;25068;-79
2023/07/06 03:23:10;;;;;;;7.50;5.83;;;13.90;99.90;13.40;100241;;;;592109;238;24079;-79
2023/07/06 03:25:35;;;;;;;8.47;5.23;;;13.90;99.90;13.50;100238;;;;591821;239;24059;-77
2023/07/06 03:28:03;;;;;;;5.13;4.57;;;14.00;99.90;13.50;100245;;;;591912;239;24032;-76
2023/07/06 03:30:31;;;;;;;4.87;4.00;;;13.90;99.90;13.60;100248;;;;592010;239;24019;-77
2023/07/06 03:32:59;;;;;;;6.67;4.80;;;14.00;99.90;13.80;100252;;;;591659;239;24063;-77
2023/07/06 03:35:28;;;;;;;5.27;4.20;;;14.70;99.90;14.40;100257;;;;591720;239;24037;-76
2023/07/06 03:37:58;;;;;;;7.30;4.57;;;14.70;99.90;15.20;100255;;;;591636;239;25183;-75
2023/07/06 03:40:24;;;;;;;6.20;4.23;;;15.40;99.90;16.00;100264;;;;591404;239;24109;-78
2023/07/06 03:42:53;;;;;;;6.80;4.40;;;16.20;99.90;16.70;100275;;;;591444;239;24051;-79
2023/07/06 03:45:23;;;;;;;5.23;4.30;;;16.90;99.90;17.40;100271;;;;591385;239;24031;-76
2023/07/06 03:47:48;;;;;;;5.40;4.20;;;17.50;99.90;18.20;100264;;;;591875;239;24241;-79
2023/07/06 03:50:16;;;;;;;5.70;4.87;;;18.30;99.90;18.90;100284;;;;592084;239;24090;-78
2023/07/06 03:52:43;;;;;;;4.43;4.03;;;19.00;99.90;19.40;100284;;;;591532;239;23055;-78
2023/07/06 03:55:18;;;;;;;4.17;3.67;;;19.50;99.90;20.00;100286;;;;588898;239;24112;-81
2023/07/06 03:57:45;;;;;;;8.27;4.23;;;20.20;99.90;20.60;100292;;;;591444;237;24034;-76
2023/07/06 04:00:22;;;;;;;4.87;3.37;;;20.90;99.90;21.20;100293;;;;591126;239;24039;-79
2023/07/06 04:02:55;;;;;;;3.87;3.40;;;21.70;99.90;21.90;100294;;;;591171;239;24104;-76
2023/07/06 04:05:23;;;;;;;5.07;2.80;;;22.50;99.90;22.60;100297;;;;591039;234;24099;-78
2023/07/06 04:07:52;;;;;;;4.60;2.83;;;23.20;99.90;23.30;100297;;;;590650;239;25120;-79
2023/07/06 04:10:26;;;;;;;7.43;3.67;;;23.90;99.90;24.10;100282;;;;591093;239;24075;-77
2023/07/06 04:12:50;;;;;;;2.90;2.70;;;24.60;99.90;24.70;100288;;;;590397;239;23057;-80
2023/07/06 04:15:22;;;;;;;2.83;2.63;;;25.80;99.90;25.20;100284;;;;590940;239;23058;-76
2023/07/06 04:17:53;;;;;;;5.43;3.13;;;25.70;99.90;25.80;100275;;;;589352;238;23034;-77
2023/07/06 04:20:21;;;;;;;6.17;2.57;;;26.90;99.90;26.20;100273;;;;592631;238;23050;-77
2023/07/06 04:22:52;;;;;;;3.15;2.85;;;26.90;99.90;26.80;100272;;;;592064;238;24093;-78
2023/07/06 04:25:21;;;;;;;3.15;2.85;;;28.10;99.90;27.30;100287;;;;591865;237;24119;-78
2023/07/06 04:27:52;;;;;;;3.15;2.78;;;28.10;99.90;28.00;100288;;;;591988;238;23032;-80
2023/07/06 04:30:16;;;;;;;5.93;2.90;;;28.80;99.90;28.40;100291;;;;591561;238;23061;-78
2023/07/06 04:32:51;;;;;;;3.00;2.78;;;29.80;95.00;28.90;100291;;;;591830;238;23049;-76
2023/07/06 04:35:22;;;;;;;2.22;2.12;;;29.70;95.00;29.50;100289;;;;590994;239;23062;-77
2023/07/06 04:37:50;;;;;;;3.78;3.47;;;30.90;92.00;29.80;100307;;;;600480;239;24140;-79
2023/07/06 04:40:18;;;;;;;5.47;2.60;;;30.80;91.90;30.10;100307;;;;590655;239;23051;-77
2023/07/06 04:42:46;;;;;;;3.40;2.80;;;31.30;95.80;30.50;100312;;;;567951;248;23114;-75
2023/07/06 04:45:11;;;;;;;3.75;2.60;;;31.70;97.30;31.00;100326;;;;578003;242;23081;-76
2023/07/06 04:47:40;;;;;;;4.12;2.80;;;32.20;93.60;31.50;100326;;;;591393;239;23041;-77
2023/07/06 04:50:08;;;;;;;3.97;2.92;;;32.70;85.40;31.60;100334;;;;600751;238;24129;-78
2023/07/06 04:52:40;;;;;;;4.82;2.30;;;33.30;76.20;31.90;100330;;;;591458;233;23037;-76
2023/07/06 04:55:08;;;;;;;3.17;2.15;;;33.50;70.30;32.30;100326;;;;591286;239;23045;-77
2023/07/06 04:57:40;;;;;;;4.05;2.45;;;33.40;69.20;32.80;100335;;;;591129;239;23053;-78
2023/07/06 05:00:14;;;;;;;6.50;2.65;;;34.40;71.80;33.00;100338;;;;590958;239;23044;-78
2023/07/06 05:02:35;;;;;;;3.50;2.60;;;34.30;71.60;33.60;100340;;;;590135;239;23058;-79
2023/07/06 05:05:05;;;;;;;8.98;3.50;;;34.80;62.50;33.90;100343;;;;590716;239;23029;-78
2023/07/06 05:07:33;;;;;;;6.03;2.58;;;35.30;71.10;34.50;100345;;;;599972;237;23064;-77
2023/07/06 05:10:00;;;;;;;4.45;2.92;;;35.90;65.50;34.90;100344;;;;590815;239;24052;-78
2023/07/06 05:12:28;;;;;;;2.87;2.22;;;36.30;65.60;35.80;100351;;;;590947;239;23054;-78
2023/07/06 05:14:56;;;;;;;3.33;2.53;;;37.00;57.90;36.10;100357;;;;590897;239;23044;-79
2023/07/06 05:17:24;;;;;;;2.75;2.55;;;37.50;57.00;36.40;100361;;;;591346;239;24051;-80
2023/07/06 05:19:55;;;;;;;5.70;2.33;;;37.80;58.40;36.70;100365;;;;591368;239;23028;-78
2023/07/06 05:22:20;;;;;;;2.62;2.42;;;38.10;54.70;36.80;100365;;;;591303;239;23062;-79
2023/07/06 05:24:48;;;;;;;8.15;2.25;;;38.20;52.80;37.20;100364;;;;592880;239;23042;-82
2023/07/06 05:27:16;;;;;;;2.20;2.00;;;38.40;48.70;37.30;100374;;;;591980;239;23058;-84
2023/07/06 05:29:44;;;;;;;4.57;1.85;;;38.70;51.40;37.10;100372;;;;593152;238;23042;-80
2023/07/06 05:32:15;;;;;;;8.20;2.50;;;38.60;52.70;37.30;100373;;;;593858;238;23059;-84
2023/07/06 05:34:40;;;;;;;7.53;3.35;;;38.60;49.30;37.80;100383;;;;593316;233;23166;-83
2023/07/06 05:37:08;;;;;;;6.70;2.47;;;38.90;47.50;38.10;100393;;;;592002;238;23091;-82
2023/07/06 05:39:35;;;;;;;2.92;2.47;;;39.20;48.80;38.30;100392;;;;591930;238;23047;-83
2023/07/06 05:42:03;;;;;;;4.87;2.10;;;39.40;47.40;38.40;100393;;;;592156;238;23043;-84
2023/07/06 05:44:31;;;;;;;4.00;2.15;;;39.60;50.00;38.50;100400;;;;592210;238;23048;-84
2023/07/06 05:46:59;;;;;;;5.15;2.20;;;39.60;46.70;38.60;100395;;;;592084;239;24123;-80
2023/07/06 05:49:27;;;;;;;6.70;2.20;;;39.60;46.00;38.60;100390;;;;592288;239;23032;-79
2023/07/06 05:51:55;;;;;;;5.40;2.03;;;39.60;46.90;39.20;100387;;;;592135;239;23025;-79
2023/07/06 05:54:23;;;;;;;1.95;1.70;;;40.00;44.30;39.30;100384;;;;592006;239;23069;-79
2023/07/06 05:56:55;;;;;;;2.55;1.90;;;40.20;44.40;39.10;100383;;;;591986;239;23025;-78
2023/07/06 05:59:26;;;;;;;5.32;2.25;;;40.40;44.40;39.50;100388;;;;591801;239;23074;-79
2023/07/06 06:01:55;;;;;;;2.10;1.90;;;40.60;43.90;39.80;100398;;;;591169;239;24074;-78
2023/07/06 06:04:19;;;;;;;3.83;2.20;;;40.50;43.70;40.40;100389;;;;590856;239;23070;-78
2023/07/06 06:06:56;;;;;;;7.78;3.62;;;41.10;43.40;40.90;100392;;;;591210;239;23091;-78
2023/07/06 06:09:30;;;;;;;2.33;2.10;;;41.50;42.30;41.20;100391;;;;591152;239;24072;-79
2023/07/06 06:11:54;;;;;;;5.62;2.22;;;41.90;42.20;41.60;100392;;;;590681;239;23057;-79
2023/07/06 06:14:25;;;;;;;2.55;2.05;;;42.20;40.90;41.60;100405;;;;591017;239;23071;-79
2023/07/06 06:16:53;;;;;;;2.03;1.87;;;42.40;41.20;41.60;100400;;;;590985;239;23043;-84
2023/07/06 06:19:18;;;;;;;1.80;1.50;;;42.40;41.50;42.20;100402;;;;591493;239;23049;-80
2023/07/06 06:21:49;;;;;;;4.00;2.17;;;42.70;40.00;42.50;100394;;;;591834;239;23033;-79
2023/07/06 06:24:14;;;;;;;9.70;2.67;;;43.10;40.10;42.30;100399;;;;591336;239;23040;-79
2023/07/06 06:26:42;;;;;;;5.70;2.20;;;43.10;39.70;42.10;100408;;;;591612;239;23035;-79
2023/07/06 06:29:10;;;;;;;3.05;1.87;;;43.00;40.20;42.30;100413;;;;586184;239;45833;-82
2023/07/06 06:31:38;;;;;;;3.22;2.28;;;43.10;39.60;42.90;100419;;;;591801;239;23013;-80
2023/07/06 06:34:07;;;;;;;4.68;1.98;;;44.20;38.60;43.80;100418;;;;591427;239;23108;-79
2023/07/06 06:36:39;;;;;;;5.82;2.85;;;44.20;38.60;44.30;100426;;;;591475;239;23045;-79
2023/07/06 06:39:07;;;;;;;4.25;1.90;;;44.80;38.30;44.50;100425;;;;590666;239;23079;-79
2023/07/06 06:41:31;;;;;;;6.00;2.03;;;45.10;37.50;44.70;100427;;;;592230;238;23047;-78
2023/07/06 06:44:00;;;;;;;7.90;2.05;;;45.30;38.00;44.90;100430;;;;592123;238;23256;-80
2023/07/06 06:46:35;;;;;;;6.22;2.67;;;45.40;37.00;44.80;100427;;;;586792;238;34933;-80
2023/07/06 06:49:00;;;;;;;1.65;1.55;;;45.30;36.50;44.30;100429;;;;601111;238;23053;-81
2023/07/06 06:51:28;;;;;;;4.22;1.50;;;45.00;36.10;44.30;100427;;;;590693;238;23049;-79
2023/07/06 06:53:59;;;;;;;1.58;1.48;;;44.80;36.80;44.30;100428;;;;592254;238;23102;-79
2023/07/06 06:56:24;;;;;;;3.37;1.42;;;44.80;36.70;44.60;100436;;;;592103;238;23044;-80
2023/07/06 06:58:52;;;;;;;3.60;1.83;;;45.00;36.40;45.10;100443;;;;591493;239;23085;-78
2023/07/06 07:01:20;;;;;;;4.25;1.67;;;45.40;36.50;45.30;100439;;;;591518;239;23061;-80
2023/07/06 07:03:54;;;;;;;3.28;1.87;;;45.70;36.00;45.70;100448;;;;591280;239;24077;-79
2023/07/06 07:06:22;;;;;;;3.17;1.48;;;46.10;35.80;46.10;100451;;;;588805;239;24396;-84
2023/07/06 07:08:50;;;;;;;1.50;1.40;;;46.50;35.20;45.70;100462;;;;591618;239;23047;-80
2023/07/06 07:11:14;;;;;;;1.75;1.52;;;46.20;34.60;45.20;100468;;;;591680;239;23036;-79
2023/07/06 07:13:42;;;;;;;4.40;1.33;;;45.70;35.40;45.60;100467;;;;591649;239;23052;-78
2023/07/06 07:16:13;;;;;;;1.98;1.77;;;45.70;35.50;46.30;100473;;;;588896;239;23156;-78
2023/07/06 07:18:43;;;;;;;1.95;1.48;;;46.70;34.60;46.60;100473;;;;591541;239;23071;-79
2023/07/06 07:21:15;;;;;;;1.85;1.40;;;46.60;34.50;46.40;100479;;;;591264;239;23056;-77
2023/07/06 07:23:46;;;;;;;8.90;2.42;;;46.60;34.30;46.60;100477;;;;591014;239;23073;-80
2023/07/06 07:26:17;;;;;;;1.12;1.05;;;46.80;34.30;46.90;100483;;;;591586;239;23032;-80
2023/07/06 07:28:48;;;;;;;1.42;1.33;;;47.10;34.10;47.10;100491;;;;591363;239;23033;-78
2023/07/06 07:31:14;;;;;;;3.08;1.30;;;47.70;33.60;47.60;100495;;;;591033;239;23036;-78
2023/07/06 07:33:46;;;;;;;1.55;1.33;;;47.70;33.60;47.70;100486;;;;591245;239;23041;-79
2023/07/06 07:36:13;;;;;;;1.62;1.45;;;48.00;32.80;47.60;100488;;;;591241;239;23032;-78
2023/07/06 07:38:41;;;;;;;2.35;1.40;;;47.90;33.50;47.50;100502;;;;591602;239;23048;-78
2023/07/06 07:41:13;;;;;;;1.73;1.60;;;47.90;33.10;47.70;100513;;;;590869;239;23083;-78
2023/07/06 07:43:41;;;;;;;1.85;1.20;;;47.90;33.60;48.00;100509;;;;577916;243;23077;-80
2023/07/06 07:46:05;;;;;;;1.20;1.20;;;48.20;33.40;48.40;100499;;;;567421;248;23195;-79
2023/07/06 07:48:34;;;;;;;4.35;1.25;;;48.60;32.60;48.30;100509;;;;567705;244;23101;-79
2023/07/06 07:51:02;;;;;;;3.50;1.12;;;48.50;32.50;48.20;100508;;;;578078;244;23077;-78
2023/07/06 07:53:35;;;;;;;1.85;1.25;;;48.30;32.90;48.20;100515;;;;592634;238;23045;-80
2023/07/06 07:56:12;;;;;;;1.48;1.37;;;48.30;33.40;48.00;100521;;;;592541;238;23057;-82
2023/07/06 07:58:34;;;;;;;1.37;1.27;;;48.20;32.50;48.50;100521;;;;590709;238;23075;-80
2023/07/06 08:01:01;;;;;;;2.58;1.10;;;48.60;32.50;48.90;100528;;;;591804;238;23088;-80
2023/07/06 08:03:36;;;;;;;2.10;1.50;;;49.00;31.90;49.30;100530;;;;591536;238;23055;-78
2023/07/06 08:06:05;;;;;;;3.15;1.17;;;49.50;31.60;49.30;100537;;;;578856;244;23084;-78
2023/07/06 08:08:36;;;;;;;3.25;1.25;;;49.50;31.60;49.10;100543;;;;568452;248;23137;-83
2023/07/06 08:11:06;;;;;;;1.10;1.10;;;49.40;31.50;48.90;100542;;;;587061;239;23081;-82
2023/07/06 08:13:31;;;;;;;3.05;1.60;;;49.20;31.80;48.50;100550;;;;591615;239;23082;-84
2023/07/06 08:16:03;;;;;;;3.87;1.40;;;48.30;32.20;47.80;100538;;;;592222;237;23044;-81
2023/07/06 08:18:28;;;;;;;4.90;1.42;;;48.00;32.50;47.70;100546;;;;601128;239;23059;-85
2023/07/06 08:20:55;;;;;;;2.55;1.77;;;48.00;32.50;47.60;100542;;;;592278;239;23070;-84
2023/07/06 08:23:26;;;;;;;8.20;2.50;;;48.00;32.50;47.30;100535;;;;591883;239;23050;-82
2023/07/06 08:25:54;;;;;;;4.72;1.80;;;47.80;32.30;46.10;100536;;;;591562;239;23075;-81
2023/07/06 08:28:29;;;;;;;5.87;1.70;;;46.90;31.90;45.10;100543;;;;591717;239;23036;-81
2023/07/06 08:30:53;;;;;;;3.15;1.33;;;45.80;32.60;44.90;100538;;;;591261;239;23118;-80
2023/07/06 08:33:21;;;;;;;4.15;1.90;;;45.30;33.50;44.70;100549;;;;591343;239;24106;-79
2023/07/06 08:35:49;;;;;;;6.32;1.98;;;45.20;33.70;44.20;100554;;;;591298;239;23027;-80
2023/07/06 08:38:21;;;;;;;1.42;1.33;;;44.80;33.80;43.50;100547;;;;588625;239;23062;-79
2023/07/06 08:40:47;;;;;;;3.35;1.27;;;44.30;33.70;42.50;100548;;;;590810;239;23051;-79
2023/07/06 08:43:16;;;;;;;3.53;1.30;;;42.40;35.20;41.70;100549;;;;590680;239;23104;-78
2023/07/06 08:45:44;;;;;;;1.10;1.10;;;42.40;35.10;41.00;100552;;;;590713;239;24056;-78
2023/07/06 08:48:15;;;;;;;1.00;1.00;;;41.80;35.80;40.30;100547;;;;600574;233;23088;-82
2023/07/06 08:50:48;;;;;;;2.67;1.30;;;41.00;36.10;39.90;100557;;;;591653;239;23102;-80
2023/07/06 08:53:16;;;;;;;1.73;1.62;;;40.50;37.30;40.20;100557;;;;591218;239;23036;-79
2023/07/06 08:55:48;;;;;;;6.30;1.83;;;40.70;38.00;40.50;100557;;;;591504;239;23056;-79
2023/07/06 08:58:12;;;;;;;3.28;1.70;;;40.70;37.90;41.00;100551;;;;590678;239;23051;-80
2023/07/06 09:00:40;;;;;;;3.22;1.85;;;41.30;37.90;40.90;100550;;;;590198;239;23039;-79
2023/07/06 09:03:12;;;;;;;2.67;1.67;;;41.30;37.10;41.60;100553;;;;591088;237;24049;-79
2023/07/06 09:05:37;;;;;;;1.65;1.50;;;41.80;37.40;42.60;100553;;;;592205;234;23112;-79
2023/07/06 09:08:07;;;;;;;2.28;1.20;;;42.70;36.30;43.50;100548;;;;592012;238;23037;-77
2023/07/06 09:10:32;;;;;;;5.78;1.50;;;43.70;35.60;44.30;100551;;;;601037;233;23151;-81
2023/07/06 09:13:22;;;;;;;2.25;1.42;;;45.00;33.40;44.50;100561;;;;591891;238;23056;-79
2023/07/06 09:16:03;;;;;;;3.15;1.60;;;45.00;33.30;45.00;100562;;;;591945;238;23044;-82
2023/07/06 09:18:30;;;;;;;4.10;1.45;;;45.90;33.20;45.20;100573;;;;591104;238;24076;-80
2023/07/06 09:20:58;;;;;;;3.70;1.15;;;45.90;33.20;44.90;100563;;;;592324;238;23035;-81
2023/07/06 09:23:27;;;;;;;2.35;1.62;;;45.20;33.40;44.00;100564;;;;591906;239;23055;-79
2023/07/06 09:25:57;;;;;;;4.40;1.33;;;45.20;33.40;43.20;100565;;;;591841;239;23033;-79
2023/07/06 09:28:29;;;;;;;2.28;1.40;;;44.50;34.20;42.70;100570;;;;591676;238;23036;-78
2023/07/06 09:30:51;;;;;;;1.70;1.60;;;43.90;34.20;42.00;100560;;;;591552;239;23084;-79
2023/07/06 09:33:22;;;;;;;4.72;1.55;;;43.10;34.30;41.30;100558;;;;590636;239;23079;-78
2023/07/06 09:35:53;;;;;;;2.17;1.60;;;42.40;35.10;41.20;100569;;;;568177;248;23172;-77
2023/07/06 09:38:27;;;;;;;2.30;1.40;;;42.20;35.30;41.60;100555;;;;578606;243;24100;-77
2023/07/06 09:40:54;;;;;;;1.85;1.40;;;42.20;35.30;41.70;100554;;;;591211;239;23033;-79
2023/07/06 09:43:30;;;;;;;3.75;1.70;;;42.40;35.30;42.50;100559;;;;591305;239;23034;-80
2023/07/06 09:45:58;;;;;;;2.37;1.50;;;43.00;35.10;43.60;100562;;;;590653;239;23073;-79
2023/07/06 09:48:31;;;;;;;1.62;1.52;;;44.10;34.90;43.60;100558;;;;591014;239;23155;-79
2023/07/06 09:51:03;;;;;;;3.30;1.52;;;44.50;34.20;43.80;100559;;;;591333;239;23071;-81
2023/07/06 09:53:31;;;;;;;1.45;1.35;;;44.60;33.70;43.40;100562;;;;591843;239;23103;-81
2023/07/06 09:55:59;;;;;;;1.90;1.55;;;44.50;33.80;42.90;100563;;;;591885;239;23099;-81
2023/07/06 09:58:36;;;;;;;2.53;1.30;;;43.90;34.00;43.10;100561;;;;591655;239;23064;-82
2023/07/06 10:01:01;;;;;;;4.12;1.60;;;44.00;35.10;43.60;100567;;;;590170;239;23057;-79
2023/07/06 10:03:47;;;;;;;1.85;1.58;;;44.40;34.30;44.40;100569;;;;591808;233;24098;-81
2023/07/06 10:06:23;;;;;;;10.60;2.25;;;45.10;33.20;44.50;100561;;;;591117;239;23086;-80
2023/07/06 10:09:00;;;;;;;2.42;1.50;;;45.50;34.00;44.40;100561;;;;590645;239;23065;-79
2023/07/06 10:11:36;;;;;;;2.12;1.30;;;45.60;33.40;44.40;100564;;;;590754;239;23068;-78
2023/07/06 10:14:05;;;;;;;6.18;2.40;;;45.80;33.40;44.60;100559;;;;591162;239;23157;-78
2023/07/06 10:16:57;;;;;;;2.12;1.35;;;45.80;33.30;44.60;100553;;;;590963;238;23055;-79
2023/07/06 10:19:45;;;;;;;3.17;1.73;;;45.70;32.80;43.60;100569;;;;591754;238;24101;-79
2023/07/06 10:22:27;;;;;;;1.42;1.30;;;44.90;33.00;42.20;100564;;;;591561;238;23090;-78
2023/07/06 10:25:06;;;;;;;1.30;1.30;;;43.70;33.60;40.80;100567;;;;602173;238;23042;-79
2023/07/06 10:27:34;;;;;;;4.53;2.12;;;42.20;34.20;40.10;100570;;;;591234;238;23059;-79
2023/07/06 10:30:05;;;;;;;7.62;1.98;;;41.30;35.10;39.90;100562;;;;590913;238;23068;-79
2023/07/06 10:32:39;;;;;;;4.80;2.08;;;40.80;35.70;40.40;100561;;;;600493;238;23074;-79
2023/07/06 10:35:15;;;;;;;12.68;3.10;;;41.10;35.60;40.70;100548;;;;590226;239;23145;-78
2023/07/06 10:37:49;;;;;;;7.03;1.98;;;41.50;35.90;40.90;100560;;;;590530;239;23047;-79
2023/07/06 10:40:19;;;;;;;10.80;2.58;;;41.80;36.00;40.30;100575;;;;590254;239;23036;-79
2023/07/06 10:42:48;;;;;;;2.25;1.80;;;41.50;35.60;39.00;100577;;;;599522;239;23104;-79
2023/07/06 10:45:35;;;;;;;3.08;1.67;;;40.50;35.30;38.00;100574;;;;590675;233;23105;-80
2023/07/06 10:48:30;;;;;;;2.50;1.57;;;39.10;36.90;37.00;100571;;;;594730;239;34987;-81
2023/07/06 10:51:25;;;;;;;1.50;1.40;;;37.80;38.20;36.10;100583;;;;600389;239;24147;-78
2023/07/06 10:54:12;;;;;;;2.92;1.90;;;36.40;40.00;35.60;100579;;;;590954;239;23080;-78
2023/07/06 10:56:39;;;;;;;0.82;0.82;;;35.50;41.80;35.20;100582;;;;589211;239;23114;-79
2023/07/06 10:59:15;;;;;;;2.80;1.50;;;35.00;42.40;34.20;100590;;;;590400;239;23091;-78
2023/07/06 11:01:46;;;;;;;1.65;1.35;;;34.20;42.20;33.30;100580;;;;590493;239;24116;-79
2023/07/06 11:04:42;;;;;;;2.80;1.52;;;33.30;42.70;32.80;100592;;;;590665;237;23178;-81
2023/07/06 11:07:10;;;;;;;3.25;1.48;;;32.30;44.50;32.20;100587;;;;590948;239;23107;-80
2023/07/06 11:09:48;;;;;;;1.70;1.20;;;32.10;46.30;32.00;100588;;;;590183;239;23064;-81
2023/07/06 11:12:18;;;;;;;2.58;1.37;;;32.00;46.10;31.50;100588;;;;590595;239;23077;-78
2023/07/06 11:14:44;;;;;;;2.67;1.48;;;31.70;45.90;30.90;100580;;;;590187;235;23096;-78
2023/07/06 11:17:30;;;;;;;2.60;1.60;;;31.10;45.90;30.30;100582;;;;590764;239;24023;-78
2023/07/06 11:20:07;;;;;;;3.08;1.40;;;30.60;46.50;30.00;100582;;;;583369;239;23130;-77
2023/07/06 11:22:38;;;;;;;2.67;1.40;;;30.20;47.10;29.80;100588;;;;567355;248;24146;-77
2023/07/06 11:25:03;;;;;;;3.92;1.42;;;30.00;48.20;29.50;100590;;;;577502;243;23070;-77